Flight Track Log - Related Links

Times and Time Zones

All times are in EDT time to prevent confusion due to time zone crossing. See the KAL824 flight status page for this flight to view local times or setup timezone preferences in your user account.

Time Position Orientation Groundspeed Altitude Reporting Facility
EDT Latitude Longitude Course Direction KTS MPH feet Rate Location/Type
Sun 01:06:00 AM 44.3180 129.4671 199° South  Level Estimated
Sun 01:07:00 AM 44.2664 129.4417 199° South  Level Estimated
Sun 01:08:00 AM 44.2149 129.4164 199° South  Level Estimated
Sun 01:09:00 AM 44.1633 129.3911 199° South  Level Estimated
Sun 01:10:00 AM 44.1118 129.3658 199° South  Level Estimated
Sun 01:10:09 AM 44.3670 129.1740 199° South 361 415 17,700  Level FlightAware ADS-B
Sun 01:11:00 AM 44.0602 129.3407 199° South  Level Estimated
Sun 01:11:01 AM 44.3330 129.0830 242° Southwest 361 415 17,700  Level FlightAware ADS-B
Sun 01:11:56 AM 44.2960 128.9870 242° Southwest 361 415 17,700  Level FlightAware ADS-B
Sun 01:12:57 AM 44.2550 128.8800 242° Southwest 361 415 17,700  Level FlightAware ADS-B
Sun 01:13:45 AM 44.2230 128.7960 242° Southwest 361 415 17,700  Level FlightAware ADS-B
Sun 01:16:00 AM 44.1045 128.7502 195° South  Level Estimated
Sun 01:17:00 AM 44.0519 128.7300 195° South  Level Estimated
Sun 01:18:00 AM 43.9992 128.7097 195° South  Level Estimated
Sun 01:19:00 AM 43.9465 128.6895 195° South  Level Estimated
Sun 01:20:00 AM 43.8938 128.6694 195° South  Level Estimated
Sun 01:21:00 AM 43.8412 128.6492 195° South  Level Estimated
Sun 01:22:00 AM 43.7885 128.6292 195° South  Level Estimated
Sun 01:23:00 AM 43.7358 128.6091 195° South  Level Estimated
Sun 01:24:00 AM 43.6831 128.5891 195° South  Level Estimated
Sun 01:25:00 AM 43.6304 128.5691 195° South  Level Estimated
Sun 01:26:00 AM 43.5777 128.5491 195° South  Level Estimated
Sun 01:27:00 AM 43.5250 128.5292 195° South  Level Estimated
Sun 01:28:00 AM 43.4723 128.5093 195° South  Level Estimated
Sun 01:29:00 AM 43.4196 128.4895 195° South  Level Estimated
Sun 01:30:00 AM 43.3669 128.4697 195° South  Level Estimated
Sun 01:31:00 AM 43.3142 128.4499 195° South  Level Estimated
Sun 01:32:00 AM 43.2615 128.4301 195° South  Level Estimated
Sun 01:33:00 AM 43.2087 128.4104 195° South  Level Estimated
Sun 01:34:00 AM 43.1560 128.3907 195° South  Level Estimated
Sun 01:35:00 AM 43.1033 128.3711 195° South  Level Estimated
Sun 01:36:00 AM 43.0506 128.3515 195° South  Level Estimated
Sun 01:37:00 AM 42.9978 128.3319 195° South  Level Estimated
Sun 01:38:00 AM 42.9451 128.3124 195° South  Level Estimated
Sun 01:39:00 AM 42.8923 128.2929 195° South  Level Estimated
Sun 01:40:00 AM 42.8396 128.2734 195° South  Level Estimated
Sun 01:41:00 AM 42.7869 128.2539 195° South  Level Estimated
Sun 01:42:00 AM 42.7341 128.2345 195° South  Level Estimated
Sun 01:43:00 AM 42.6814 128.2151 195° South  Level Estimated
Sun 01:44:00 AM 42.6286 128.1958 195° South  Level Estimated
Sun 01:45:00 AM 42.5758 128.1765 195° South  Level Estimated
Sun 01:46:00 AM 42.5231 128.1572 195° South  Level Estimated
Sun 01:47:00 AM 42.4703 128.1380 195° South  Level Estimated
Sun 01:48:00 AM 42.4175 128.1188 195° South  Level Estimated
Sun 01:49:00 AM 42.3648 128.0996 195° South  Level Estimated
Sun 01:50:00 AM 42.3120 128.0804 195° South  Level Estimated
Sun 01:51:00 AM 42.2592 128.0613 195° South  Level Estimated
Sun 01:52:00 AM 42.2064 128.0422 195° South  Level Estimated
Sun 01:53:00 AM 42.1536 128.0232 195° South  Level Estimated
Sun 01:54:00 AM 42.1008 128.0042 195° South  Level Estimated
Sun 01:55:00 AM 42.0481 127.9852 195° South  Level Estimated
Sun 01:56:00 AM 41.9953 127.9662 195° South  Level Estimated
Sun 01:57:00 AM 41.9425 127.9473 195° South  Level Estimated
Sun 01:58:00 AM 41.8897 127.9284 195° South  Level Estimated
Sun 01:59:00 AM 41.8369 127.9095 195° South  Level Estimated
Sun 01:00:00 AM 41.7840 127.8907 195° South  Level Estimated
Sun 01:01:00 AM 41.7312 127.8719 195° South  Level Estimated
Sun 01:02:00 AM 41.6784 127.8531 195° South  Level Estimated
Sun 01:03:00 AM 41.6256 127.8344 195° South  Level Estimated
Sun 01:04:00 AM 41.5728 127.8157 195° South  Level Estimated
Sun 01:05:00 AM 41.5200 127.7970 195° South  Level Estimated
Sun 01:06:00 AM 41.4671 127.7783 195° South  Level Estimated
Sun 01:07:00 AM 41.4143 127.7597 195° South  Level Estimated
Sun 01:08:00 AM 41.3615 127.7411 195° South  Level Estimated
Sun 01:09:00 AM 41.3087 127.7226 195° South  Level Estimated
Sun 01:10:00 AM 41.2558 127.7040 195° South  Level Estimated
Sun 01:11:00 AM 41.2030 127.6855 195° South  Level Estimated
Sun 01:12:00 AM 41.1501 127.6671 195° South  Level Estimated
Sun 01:13:00 AM 41.0973 127.6486 195° South  Level Estimated
Sun 01:14:00 AM 41.0444 127.6302 195° South  Level Estimated
Sun 01:15:00 AM 40.9916 127.6118 195° South  Level Estimated
Sun 01:16:00 AM 40.9387 127.5935 195° South  Level Estimated
Sun 01:17:00 AM 40.8859 127.5752 195° South  Level Estimated
Sun 01:18:00 AM 40.8330 127.5569 195° South  Level Estimated
Sun 01:19:00 AM 40.7801 127.5386 195° South  Level Estimated
Sun 01:20:00 AM 40.7273 127.5204 195° South  Level Estimated
Sun 01:21:00 AM 40.6744 127.5022 195° South  Level Estimated
Sun 01:22:00 AM 40.6215 127.4840 195° South  Level Estimated
Sun 01:23:00 AM 40.5686 127.4659 195° South  Level Estimated
Sun 01:24:00 AM 40.5158 127.4477 195° South  Level Estimated
Sun 01:25:00 AM 40.4629 127.4296 195° South  Level Estimated
Sun 01:26:00 AM 40.4100 127.4116 195° South  Level Estimated
Sun 01:27:00 AM 40.3571 127.3935 195° South  Level Estimated
Sun 01:28:00 AM 40.3042 127.3755 195° South  Level Estimated
Sun 01:29:00 AM 40.2513 127.3576 195° South  Level Estimated
Sun 01:30:00 AM 40.1984 127.3396 195° South  Level Estimated
Sun 01:31:00 AM 40.1455 127.3217 195° South  Level Estimated
Sun 01:32:00 AM 40.0926 127.3038 195° South  Level Estimated
Sun 01:33:00 AM 40.0397 127.2859 194° South  Level Estimated
Sun 01:34:00 AM 39.9868 127.2681 194° South  Level Estimated
Sun 01:35:00 AM 39.9339 127.2503 194° South  Level Estimated
Sun 01:36:00 AM 39.8810 127.2325 194° South  Level Estimated
Sun 01:37:00 AM 39.8281 127.2148 194° South  Level Estimated
Sun 01:38:00 AM 39.7752 127.1970 194° South  Level Estimated
Sun 01:39:00 AM 39.7223 127.1793 194° South  Level Estimated
Sun 01:40:00 AM 39.6693 127.1617 194° South  Level Estimated
Sun 01:41:00 AM 39.6164 127.1440 194° South  Level Estimated
Sun 01:42:00 AM 39.5635 127.1264 194° South  Level Estimated
Sun 01:43:00 AM 39.5106 127.1088 194° South  Level Estimated
Sun 01:44:00 AM 39.4576 127.0912 194° South  Level Estimated
Sun 01:45:00 AM 39.4047 127.0737 194° South  Level Estimated
Sun 01:46:00 AM 39.3517 127.0562 194° South  Level Estimated
Sun 01:47:00 AM 39.2988 127.0387 194° South  Level Estimated
Sun 01:48:00 AM 39.2459 127.0212 194° South  Level Estimated
Sun 01:49:00 AM 39.1929 127.0038 194° South  Level Estimated
Sun 01:50:00 AM 39.1400 126.9864 194° South  Level Estimated
Sun 01:51:00 AM 39.0870 126.9690 194° South  Level Estimated
Sun 01:52:00 AM 39.0341 126.9517 194° South  Level Estimated
Sun 01:53:00 AM 38.9811 126.9343 194° South  Level Estimated
Sun 01:54:00 AM 38.9281 126.9170 194° South  Level Estimated
Sun 01:55:00 AM 38.8752 126.8998 194° South  Level Estimated
Sun 01:56:00 AM 38.8222 126.8825 194° South  Level Estimated
Sun 01:57:00 AM 38.7692 126.8653 194° South  Level Estimated
Sun 01:58:00 AM 38.7163 126.8481 194° South  Level Estimated
Sun 01:59:00 AM 38.6633 126.8309 194° South  Level Estimated
Sun 02:00:00 AM 38.6103 126.8138 194° South  Level Estimated
Sun 02:01:00 AM 38.5574 126.7967 194° South  Level Estimated
Sun 02:02:00 AM 38.5044 126.7795 194° South  Level Estimated
Sun 02:03:00 AM 38.4514 126.7625 194° South  Level Estimated
Sun 02:04:00 AM 38.3984 126.7454 194° South  Level Estimated
Sun 02:05:00 AM 38.3454 126.7284 194° South  Level Estimated
Sun 02:06:00 AM 38.2924 126.7114 194° South  Level Estimated
Sun 02:07:00 AM 38.2394 126.6944 194° South  Level Estimated
Sun 02:08:00 AM 38.1865 126.6775 194° South  Level Estimated
Sun 02:09:00 AM 38.1335 126.6606 194° South  Level Estimated
Sun 02:10:00 AM 38.0805 126.6437 194° South  Level Estimated
Sun 02:11:00 AM 38.0275 126.6268 194° South  Level Estimated
Sun 02:12:00 AM 37.9745 126.6099 194° South  Level Estimated
Sun 02:13:00 AM 37.9215 126.5931 194° South  Level Estimated
Sun 02:14:00 AM 37.8684 126.5763 194° South  Level Estimated
Sun 02:15:00 AM 37.8154 126.5595 194° South  Level Estimated
Sun 02:16:00 AM 37.7624 126.5428 194° South  Level Estimated
Sun 02:17:00 AM 37.7094 126.5260 194° South  Level Estimated
Sun 02:18:00 AM 37.6564 126.5093 194° South  Level Estimated
Sun 02:19:00 AM 37.6034 126.4927 194° South  Level Estimated
Sun 02:20:00 AM 37.5503 126.4760 194° South  Level Estimated
Sun 02:21:00 AM 37.4973 126.4594 194° South  Level Estimated
Sun 02:22:00 AM 37.4691 126.4505 194° South  Level Estimated
Sun 02:23:00 AM 37.4691 126.4505 335° Northwest  Level Estimated

Login

Don't have an account? Register now (free) for customized features, flight alerts, and more!